createdAt,value
2022-12-09T00:00:43.097Z,925.2
2022-12-09T00:01:43.122Z,925.23
2022-12-09T00:02:43.583Z,925.17
2022-12-09T00:03:43.881Z,925.22
2022-12-09T00:04:44.237Z,925.24
2022-12-09T00:05:43.989Z,925.2
2022-12-09T00:06:44.704Z,925.19
2022-12-09T00:07:44.965Z,925.25
2022-12-09T00:08:46.021Z,925.2
2022-12-09T00:09:47.225Z,925.22
2022-12-09T00:10:47.850Z,925.21
2022-12-09T00:11:48.735Z,925.18
2022-12-09T00:12:49.699Z,925.18
2022-12-09T00:13:50.875Z,925.16
2022-12-09T00:14:51.223Z,925.1
2022-12-09T00:15:52.174Z,925.18
2022-12-09T00:16:52.259Z,925.1
2022-12-09T00:17:52.374Z,925.13
2022-12-09T00:18:52.936Z,925.11
2022-12-09T00:19:52.850Z,925.07
2022-12-09T00:20:53.906Z,925.06
2022-12-09T00:21:53.901Z,925.05
2022-12-09T00:22:54.444Z,925.08
2022-12-09T00:23:55.419Z,925.09
2022-12-09T00:24:56.467Z,925.11
2022-12-09T00:25:57.319Z,925.05
2022-12-09T00:26:58.199Z,925.06
2022-12-09T00:27:58.670Z,925.13
2022-12-09T00:28:59.177Z,925.15
2022-12-09T00:29:59.390Z,925.12
2022-12-09T00:31:00.659Z,925.13
2022-12-09T00:32:01.149Z,925.15
2022-12-09T00:33:01.898Z,925.1
2022-12-09T00:34:02.081Z,925.12
2022-12-09T00:35:03.118Z,925.05
2022-12-09T00:36:04.140Z,925.02
2022-12-09T00:37:05.390Z,924.96
2022-12-09T00:38:05.533Z,924.93
2022-12-09T00:39:06.038Z,924.9
2022-12-09T00:40:07.033Z,924.87
2022-12-09T00:41:07.028Z,924.89
2022-12-09T00:42:07.872Z,924.95
2022-12-09T00:43:07.872Z,924.97
2022-12-09T00:44:08.250Z,924.99
2022-12-09T00:45:08.582Z,924.95
2022-12-09T00:46:09.449Z,924.93
2022-12-09T00:47:10.029Z,924.92
2022-12-09T00:48:10.026Z,924.87
2022-12-09T00:49:10.430Z,924.88
2022-12-09T00:50:10.957Z,924.85
2022-12-09T00:51:10.852Z,924.84
2022-12-09T00:52:11.271Z,924.83
2022-12-09T00:53:11.962Z,924.84
2022-12-09T00:54:13.017Z,924.82
2022-12-09T00:55:13.318Z,924.75
2022-12-09T00:56:14.180Z,924.75
2022-12-09T00:57:14.582Z,924.69
2022-12-09T00:58:14.954Z,924.65
2022-12-09T00:59:15.359Z,924.64
2022-12-09T01:00:16.116Z,924.63
2022-12-09T01:01:17.442Z,924.64
2022-12-09T01:02:17.871Z,924.67
2022-12-09T01:03:18.624Z,924.59
2022-12-09T01:04:18.661Z,924.61
2022-12-09T01:05:19.380Z,924.61
2022-12-09T01:06:19.707Z,924.61
2022-12-09T01:07:20.368Z,924.66
2022-12-09T01:08:20.987Z,924.69
2022-12-09T01:09:21.633Z,924.67
2022-12-09T01:10:21.851Z,924.66
2022-12-09T01:11:22.502Z,924.62
2022-12-09T01:12:23.203Z,924.62
2022-12-09T01:13:23.342Z,924.6
2022-12-09T01:14:24.066Z,924.56
2022-12-09T01:15:24.949Z,924.45
2022-12-09T01:16:25.203Z,924.39
2022-12-09T01:17:25.874Z,924.37
2022-12-09T01:18:26.000Z,924.41
2022-12-09T01:19:26.428Z,924.54
2022-12-09T01:20:26.661Z,924.62
2022-12-09T01:21:27.292Z,924.69
2022-12-09T01:22:28.346Z,924.68
2022-12-09T01:23:28.458Z,924.61
2022-12-09T01:24:29.536Z,924.58
2022-12-09T01:25:30.258Z,924.58
2022-12-09T01:26:31.152Z,924.51
2022-12-09T01:27:31.699Z,924.42
2022-12-09T01:28:32.471Z,924.38
2022-12-09T01:29:33.276Z,924.36
2022-12-09T01:30:33.278Z,924.4
2022-12-09T01:31:33.329Z,924.47
2022-12-09T01:32:34.060Z,924.52
2022-12-09T01:33:34.135Z,924.54
2022-12-09T01:34:34.982Z,924.52
2022-12-09T01:35:35.451Z,924.54
2022-12-09T01:36:36.211Z,924.57
2022-12-09T01:37:36.955Z,924.57
2022-12-09T01:38:38.070Z,924.54
2022-12-09T01:39:38.518Z,924.5
2022-12-09T01:40:39.694Z,924.52
2022-12-09T01:41:40.479Z,924.53
2022-12-09T01:42:41.330Z,924.5
2022-12-09T01:43:42.075Z,924.45
2022-12-09T01:44:43.014Z,924.48
2022-12-09T01:45:43.520Z,924.42
2022-12-09T01:46:43.875Z,924.37
2022-12-09T01:47:44.529Z,924.3
2022-12-09T01:48:45.418Z,924.32
2022-12-09T01:49:45.691Z,924.26
2022-12-09T01:50:46.233Z,924.25
2022-12-09T01:51:47.099Z,924.2
2022-12-09T01:52:47.520Z,924.19
2022-12-09T01:53:47.789Z,924.14
2022-12-09T01:54:48.626Z,924.04
2022-12-09T01:55:49.355Z,924.01
2022-12-09T01:56:49.631Z,923.98
2022-12-09T01:57:50.545Z,923.94
2022-12-09T01:58:51.119Z,923.91
2022-12-09T01:59:51.638Z,923.89
2022-12-09T02:00:52.141Z,923.81
2022-12-09T02:01:52.584Z,923.84
2022-12-09T02:02:53.386Z,923.82
2022-12-09T02:03:53.905Z,923.83
2022-12-09T02:04:54.759Z,923.84
2022-12-09T02:05:55.591Z,923.88
2022-12-09T02:06:55.844Z,923.92
2022-12-09T02:07:56.728Z,923.93
2022-12-09T02:08:57.322Z,923.94
2022-12-09T02:09:58.111Z,923.97
2022-12-09T02:10:59.066Z,923.88
2022-12-09T02:12:00.094Z,923.86
2022-12-09T02:13:00.472Z,923.85
2022-12-09T02:14:01.432Z,923.84
2022-12-09T02:15:02.663Z,923.83
2022-12-09T02:16:03.446Z,923.84
2022-12-09T02:17:04.069Z,923.86
2022-12-09T02:18:03.859Z,923.82
2022-12-09T02:19:04.415Z,923.81
2022-12-09T02:20:05.856Z,923.76
2022-12-09T02:21:05.743Z,923.8
2022-12-09T02:22:06.016Z,923.78
2022-12-09T02:23:06.791Z,923.79
2022-12-09T02:24:07.113Z,923.81
2022-12-09T02:25:08.007Z,923.83
2022-12-09T02:26:08.481Z,923.8
2022-12-09T02:27:08.960Z,923.82
2022-12-09T02:28:09.608Z,923.79
2022-12-09T02:29:10.241Z,923.76
2022-12-09T02:30:11.020Z,923.75
2022-12-09T02:31:11.516Z,923.73
2022-12-09T02:32:12.424Z,923.7
2022-12-09T02:33:13.317Z,923.7
2022-12-09T02:34:13.740Z,923.65
2022-12-09T02:35:14.243Z,923.6
2022-12-09T02:36:15.179Z,923.55
2022-12-09T02:37:15.653Z,923.57
2022-12-09T02:38:15.686Z,923.54
2022-12-09T02:39:16.059Z,923.54
2022-12-09T02:40:16.849Z,923.5
2022-12-09T02:41:16.730Z,923.52
2022-12-09T02:42:17.306Z,923.49
2022-12-09T02:43:17.900Z,923.53
2022-12-09T02:44:18.728Z,923.44
2022-12-09T02:45:19.641Z,923.45
2022-12-09T02:46:20.228Z,923.43
2022-12-09T02:47:20.437Z,923.41
2022-12-09T02:48:20.556Z,923.47
2022-12-09T02:49:20.636Z,923.46
2022-12-09T02:50:21.018Z,923.5
2022-12-09T02:51:21.905Z,923.51
2022-12-09T02:52:22.413Z,923.52
2022-12-09T02:53:23.122Z,923.5
2022-12-09T02:54:23.568Z,923.48
2022-12-09T02:55:24.304Z,923.49
2022-12-09T02:56:24.773Z,923.49
2022-12-09T02:57:25.529Z,923.45
2022-12-09T02:58:26.633Z,923.5
2022-12-09T02:59:27.130Z,923.47
2022-12-09T03:00:27.792Z,923.46
2022-12-09T03:01:28.737Z,923.42
2022-12-09T03:02:29.080Z,923.35
2022-12-09T03:03:29.678Z,923.41
2022-12-09T03:04:29.808Z,923.41
2022-12-09T03:05:29.961Z,923.39
2022-12-09T03:06:30.568Z,923.37
2022-12-09T03:07:31.583Z,923.33
2022-12-09T03:08:32.118Z,923.3
2022-12-09T03:09:33.060Z,923.25
2022-12-09T03:10:33.291Z,923.25
2022-12-09T03:11:33.730Z,923.28
2022-12-09T03:12:34.313Z,923.27
2022-12-09T03:13:35.135Z,923.24
2022-12-09T03:14:36.140Z,923.28
2022-12-09T03:15:36.682Z,923.27
2022-12-09T03:16:37.611Z,923.25
2022-12-09T03:17:37.968Z,923.26
2022-12-09T03:18:38.506Z,923.24
2022-12-09T03:19:39.365Z,923.26
2022-12-09T03:20:39.366Z,923.24
2022-12-09T03:21:40.264Z,923.21
2022-12-09T03:22:41.368Z,923.24
2022-12-09T03:23:42.047Z,923.24
2022-12-09T03:24:42.062Z,923.26
2022-12-09T03:25:42.307Z,923.25
2022-12-09T03:26:43.033Z,923.21
2022-12-09T03:27:43.643Z,923.21
2022-12-09T03:28:43.990Z,923.24
2022-12-09T03:29:45.094Z,923.24
2022-12-09T03:30:46.052Z,923.27
2022-12-09T03:31:46.640Z,923.27
2022-12-09T03:32:47.389Z,923.25
2022-12-09T03:33:47.896Z,923.25
2022-12-09T03:34:48.764Z,923.19
2022-12-09T03:35:48.839Z,923.3
2022-12-09T03:36:49.906Z,923.27
2022-12-09T03:37:50.694Z,923.23
2022-12-09T03:38:51.171Z,923.2
2022-12-09T03:39:52.229Z,923.19
2022-12-09T03:40:53.187Z,923.21
2022-12-09T03:41:53.521Z,923.17
2022-12-09T03:42:53.621Z,923.2
2022-12-09T03:43:54.328Z,923.15
2022-12-09T03:44:54.952Z,923.1
2022-12-09T03:45:55.060Z,923.15
2022-12-09T03:46:55.745Z,923.17
2022-12-09T03:47:56.356Z,923.23
2022-12-09T03:48:56.618Z,923.28
2022-12-09T03:49:57.570Z,923.33
2022-12-09T03:50:57.747Z,923.31
2022-12-09T03:51:57.999Z,923.32
2022-12-09T03:52:58.433Z,923.24
2022-12-09T03:53:59.424Z,923.2
2022-12-09T03:55:00.278Z,923.19
2022-12-09T03:56:01.194Z,923.15
2022-12-09T03:57:02.186Z,923.11
2022-12-09T03:58:02.926Z,923.14
2022-12-09T03:59:03.580Z,923.09
2022-12-09T04:00:04.156Z,923.13
2022-12-09T04:01:05.006Z,923.15
2022-12-09T04:02:05.025Z,923.11
2022-12-09T04:03:05.569Z,923.11
2022-12-09T04:04:06.479Z,923.1
2022-12-09T04:05:07.042Z,923.12
2022-12-09T04:06:07.491Z,923.09
2022-12-09T04:07:07.514Z,923.11
2022-12-09T04:08:08.232Z,923.08
2022-12-09T04:09:08.333Z,923.07
2022-12-09T04:10:09.509Z,923.03
2022-12-09T04:11:10.017Z,923.02
2022-12-09T04:12:11.031Z,922.99
2022-12-09T04:13:11.254Z,922.96
2022-12-09T04:14:15.444Z,922.91
2022-12-09T04:15:12.442Z,922.87
2022-12-09T04:16:12.512Z,922.87
2022-12-09T04:17:12.919Z,922.87
2022-12-09T04:18:13.323Z,922.89
2022-12-09T04:19:13.827Z,922.83
2022-12-09T04:20:14.938Z,922.86
2022-12-09T04:21:15.114Z,922.89
2022-12-09T04:22:15.809Z,922.87
2022-12-09T04:23:16.563Z,922.82
2022-12-09T04:24:17.595Z,922.8
2022-12-09T04:25:18.149Z,922.83
2022-12-09T04:26:18.258Z,922.81
2022-12-09T04:27:18.975Z,922.82
2022-12-09T04:28:19.908Z,922.81
2022-12-09T04:29:21.214Z,922.79
2022-12-09T04:30:21.980Z,922.76
2022-12-09T04:31:22.930Z,922.8
2022-12-09T04:32:23.083Z,922.78
2022-12-09T04:33:24.072Z,922.77
2022-12-09T04:34:24.574Z,922.72
2022-12-09T04:35:24.969Z,922.73
2022-12-09T04:36:25.146Z,922.76
2022-12-09T04:37:25.438Z,922.74
2022-12-09T04:38:26.228Z,922.75
2022-12-09T04:39:26.813Z,922.7
2022-12-09T04:40:26.950Z,922.6
2022-12-09T04:41:27.333Z,922.62
2022-12-09T04:42:28.412Z,922.58
2022-12-09T04:43:29.054Z,922.63
2022-12-09T04:44:30.162Z,922.6
2022-12-09T04:45:31.068Z,922.6
2022-12-09T04:46:31.748Z,922.56
2022-12-09T04:47:32.285Z,922.5
2022-12-09T04:48:33.064Z,922.48
2022-12-09T04:49:33.616Z,922.47
2022-12-09T04:50:33.941Z,922.51
2022-12-09T04:51:39.310Z,922.49
2022-12-09T04:52:34.551Z,922.41
2022-12-09T04:53:35.664Z,922.4
2022-12-09T04:54:36.693Z,922.4
2022-12-09T04:55:37.113Z,922.36
2022-12-09T04:56:37.661Z,922.38
2022-12-09T04:57:38.328Z,922.38
2022-12-09T04:58:39.352Z,922.33
2022-12-09T04:59:40.130Z,922.36
2022-12-09T05:00:40.504Z,922.32
2022-12-09T05:01:41.549Z,922.28
2022-12-09T05:02:42.207Z,922.31
2022-12-09T05:03:42.190Z,922.29
2022-12-09T05:04:43.160Z,922.32
2022-12-09T05:05:43.351Z,922.28
2022-12-09T05:06:43.577Z,922.29
2022-12-09T05:07:44.108Z,922.27
2022-12-09T05:08:44.627Z,922.31
2022-12-09T05:09:45.810Z,922.28
2022-12-09T05:10:46.744Z,922.25
2022-12-09T05:11:47.354Z,922.26
2022-12-09T05:12:48.015Z,922.25
2022-12-09T05:13:49.144Z,922.28
2022-12-09T05:14:49.086Z,922.31
2022-12-09T05:15:49.201Z,922.31
2022-12-09T05:16:50.246Z,922.29
2022-12-09T05:17:50.597Z,922.33
2022-12-09T05:18:51.434Z,922.3
2022-12-09T05:19:50.898Z,922.35
2022-12-09T05:20:51.905Z,922.36
2022-12-09T05:21:52.991Z,922.36
2022-12-09T05:22:53.342Z,922.34
2022-12-09T05:23:54.208Z,922.37
2022-12-09T05:24:54.806Z,922.34
2022-12-09T05:25:54.953Z,922.35
2022-12-09T05:26:55.922Z,922.36
2022-12-09T05:27:56.139Z,922.41
2022-12-09T05:28:56.807Z,922.37
2022-12-09T05:29:57.705Z,922.32
2022-12-09T05:30:58.379Z,922.28
2022-12-09T05:31:59.486Z,922.23
2022-12-09T05:32:59.248Z,922.23
2022-12-09T05:33:59.326Z,922.21
2022-12-09T05:34:59.699Z,922.24
2022-12-09T05:36:00.236Z,922.25
2022-12-09T05:37:00.569Z,922.24
2022-12-09T05:38:00.682Z,922.27
2022-12-09T05:39:01.609Z,922.25
2022-12-09T05:40:02.108Z,922.24
2022-12-09T05:41:02.957Z,922.22
2022-12-09T05:42:03.064Z,922.22
2022-12-09T05:43:03.945Z,922.22
2022-12-09T05:44:04.038Z,922.24
2022-12-09T05:45:04.896Z,922.21
2022-12-09T05:46:05.659Z,922.22
2022-12-09T05:47:06.054Z,922.24
2022-12-09T05:48:06.964Z,922.27
2022-12-09T05:49:07.305Z,922.24
2022-12-09T05:50:08.473Z,922.25
2022-12-09T05:51:08.034Z,922.28
2022-12-09T05:52:07.884Z,922.22
2022-12-09T05:53:08.995Z,922.18
2022-12-09T05:54:09.283Z,922.16
2022-12-09T05:55:10.245Z,922.14
2022-12-09T05:56:10.839Z,922.11
2022-12-09T05:57:10.958Z,922.1
2022-12-09T05:58:10.983Z,922.13
2022-12-09T05:59:12.127Z,922.1
2022-12-09T06:00:13.159Z,922.14
2022-12-09T06:01:13.804Z,922.14
2022-12-09T06:02:15.123Z,922.17
2022-12-09T06:03:16.127Z,922.14
2022-12-09T06:04:16.215Z,922.16
2022-12-09T06:05:16.453Z,922.14
2022-12-09T06:06:16.806Z,922.09
2022-12-09T06:07:17.065Z,922.08
2022-12-09T06:08:18.007Z,922.06
2022-12-09T06:09:18.218Z,922.14
2022-12-09T06:10:19.135Z,922.1
2022-12-09T06:11:19.988Z,922.07
2022-12-09T06:12:21.048Z,922.09
2022-12-09T06:13:21.664Z,922.09
2022-12-09T06:14:22.513Z,922.03
2022-12-09T06:15:25.737Z,922.05
2022-12-09T06:16:24.077Z,922.05
2022-12-09T06:17:24.387Z,922.04
2022-12-09T06:18:25.250Z,922.04
2022-12-09T06:19:26.062Z,922.02
2022-12-09T06:20:27.058Z,922.02
2022-12-09T06:21:27.359Z,922.05
2022-12-09T06:22:28.111Z,922.05
2022-12-09T06:23:28.880Z,922.03
2022-12-09T06:24:29.184Z,922.01
2022-12-09T06:25:29.660Z,922.06
2022-12-09T06:26:30.167Z,922.05
2022-12-09T06:27:30.354Z,922.07
2022-12-09T06:28:30.869Z,922.08
2022-12-09T06:29:31.994Z,922.09
2022-12-09T06:30:32.481Z,922.07
2022-12-09T06:31:33.402Z,922.09
2022-12-09T06:32:34.492Z,922.08
2022-12-09T06:33:53.955Z,922.13
2022-12-09T06:34:35.716Z,922.09
2022-12-09T06:35:37.001Z,922.08
2022-12-09T06:36:37.486Z,922
2022-12-09T06:37:38.573Z,921.99
2022-12-09T06:38:39.432Z,921.94
2022-12-09T06:39:40.288Z,921.93
2022-12-09T06:40:41.356Z,921.92
2022-12-09T06:41:42.247Z,921.92
2022-12-09T06:42:42.521Z,921.93
2022-12-09T06:43:43.294Z,921.95
2022-12-09T06:44:44.251Z,921.98
2022-12-09T06:45:45.110Z,921.99
2022-12-09T06:46:45.712Z,921.99
2022-12-09T06:47:46.045Z,922.01
2022-12-09T06:48:47.029Z,921.98
2022-12-09T06:49:46.987Z,921.94
2022-12-09T06:50:47.315Z,921.92
2022-12-09T06:51:48.562Z,921.93
2022-12-09T06:52:49.056Z,921.9
2022-12-09T06:53:49.451Z,921.9
2022-12-09T06:54:49.404Z,921.9
2022-12-09T06:55:50.147Z,921.95
2022-12-09T06:56:50.298Z,921.9
2022-12-09T06:57:51.055Z,921.92
2022-12-09T06:58:52.042Z,921.9
2022-12-09T06:59:52.393Z,921.94
2022-12-09T07:00:52.599Z,921.91
2022-12-09T07:01:53.442Z,921.9
2022-12-09T07:02:53.667Z,921.87
2022-12-09T07:03:54.221Z,921.83
2022-12-09T07:04:54.257Z,921.78
2022-12-09T07:05:54.511Z,921.77
2022-12-09T07:06:54.539Z,921.78
2022-12-09T07:07:55.435Z,921.81
2022-12-09T07:08:55.877Z,921.82
2022-12-09T07:09:56.535Z,921.85
2022-12-09T07:10:57.592Z,921.79
2022-12-09T07:11:57.623Z,921.74
2022-12-09T07:12:58.152Z,921.76
2022-12-09T07:13:58.936Z,921.78
2022-12-09T07:14:59.420Z,921.77
2022-12-09T07:15:59.787Z,921.84
2022-12-09T07:17:00.830Z,921.86
2022-12-09T07:18:01.124Z,921.89
2022-12-09T07:19:01.006Z,921.84
2022-12-09T07:20:06.487Z,921.8
2022-12-09T07:21:02.215Z,921.76
2022-12-09T07:22:02.453Z,921.75
2022-12-09T07:23:03.470Z,921.8
2022-12-09T07:24:04.607Z,921.83
2022-12-09T07:25:04.474Z,921.88
2022-12-09T07:26:04.413Z,921.83
2022-12-09T07:27:09.103Z,921.76
2022-12-09T07:28:05.506Z,921.73
2022-12-09T07:29:06.159Z,921.71
2022-12-09T07:30:07.124Z,921.73
2022-12-09T07:31:07.775Z,921.72
2022-12-09T07:32:07.881Z,921.7
2022-12-09T07:33:09.269Z,921.73
2022-12-09T07:34:10.150Z,921.71
2022-12-09T07:35:10.212Z,921.74
2022-12-09T07:36:12.619Z,921.73
2022-12-09T07:37:11.481Z,921.7
2022-12-09T07:38:12.093Z,921.69
2022-12-09T07:39:13.324Z,921.66
2022-12-09T07:40:13.764Z,921.64
2022-12-09T07:41:14.138Z,921.68
2022-12-09T07:42:14.459Z,921.69
2022-12-09T07:43:15.016Z,921.75
2022-12-09T07:44:16.142Z,921.74
2022-12-09T07:45:16.583Z,921.75
2022-12-09T07:46:18.107Z,921.65
2022-12-09T07:47:18.043Z,921.64
2022-12-09T07:48:18.628Z,921.65
2022-12-09T07:49:18.492Z,921.66
2022-12-09T07:50:19.166Z,921.68
2022-12-09T07:51:20.417Z,921.68
2022-12-09T07:52:21.088Z,921.65
2022-12-09T07:53:21.145Z,921.64
2022-12-09T07:54:21.487Z,921.59
2022-12-09T07:55:22.341Z,921.6
2022-12-09T07:56:23.203Z,921.56
2022-12-09T07:57:24.448Z,921.53
2022-12-09T07:58:25.213Z,921.55
2022-12-09T07:59:25.969Z,921.6
2022-12-09T08:00:25.968Z,921.63
2022-12-09T08:01:26.178Z,921.65
2022-12-09T08:02:26.961Z,921.64
2022-12-09T08:03:26.909Z,921.59
2022-12-09T08:04:27.477Z,921.52
2022-12-09T08:05:28.368Z,921.49
2022-12-09T08:06:29.431Z,921.42
2022-12-09T08:07:29.457Z,921.44
2022-12-09T08:08:30.350Z,921.42
2022-12-09T08:09:31.317Z,921.38
2022-12-09T08:10:32.467Z,921.39
2022-12-09T08:11:32.885Z,921.36
2022-12-09T08:12:32.559Z,921.33
2022-12-09T08:13:32.886Z,921.37
2022-12-09T08:14:33.668Z,921.34
2022-12-09T08:15:34.645Z,921.36
2022-12-09T08:16:35.033Z,921.38
2022-12-09T08:17:35.769Z,921.43
2022-12-09T08:18:36.596Z,921.36
2022-12-09T08:19:37.240Z,921.4
2022-12-09T08:20:38.123Z,921.37
2022-12-09T08:21:38.472Z,921.4
2022-12-09T08:22:39.089Z,921.4
2022-12-09T08:23:40.163Z,921.41
2022-12-09T08:24:40.159Z,921.36
2022-12-09T08:25:41.138Z,921.39
2022-12-09T08:26:42.386Z,921.42
2022-12-09T08:27:42.583Z,921.39
2022-12-09T08:28:42.902Z,921.39
2022-12-09T08:29:43.635Z,921.44
2022-12-09T08:30:44.398Z,921.41
2022-12-09T08:31:45.274Z,921.42
2022-12-09T08:32:44.870Z,921.44
2022-12-09T08:33:45.068Z,921.45
2022-12-09T08:34:45.811Z,921.47
2022-12-09T08:35:46.423Z,921.49
2022-12-09T08:36:47.069Z,921.53
2022-12-09T08:37:47.215Z,921.53
2022-12-09T08:38:48.085Z,921.52
2022-12-09T08:39:48.463Z,921.53
2022-12-09T08:40:49.418Z,921.48
2022-12-09T08:41:50.168Z,921.45
2022-12-09T08:42:51.282Z,921.45
2022-12-09T08:43:51.427Z,921.52
2022-12-09T08:44:55.931Z,921.53
2022-12-09T08:45:53.105Z,921.49
2022-12-09T08:46:53.027Z,921.53
2022-12-09T08:47:53.514Z,921.49
2022-12-09T08:48:53.886Z,921.54
2022-12-09T08:49:54.901Z,921.55
2022-12-09T08:50:54.881Z,921.54
2022-12-09T08:51:55.434Z,921.54
2022-12-09T08:52:55.985Z,921.55
2022-12-09T08:53:57.232Z,921.55
2022-12-09T08:54:57.412Z,921.55
2022-12-09T08:55:58.238Z,921.58
2022-12-09T08:56:58.534Z,921.54
2022-12-09T08:57:59.516Z,921.45
2022-12-09T08:59:00.465Z,921.4
2022-12-09T09:00:01.289Z,921.32
2022-12-09T09:01:02.387Z,921.31
2022-12-09T09:02:02.846Z,921.35
2022-12-09T09:03:02.960Z,921.38
2022-12-09T09:04:03.987Z,921.42
2022-12-09T09:05:04.098Z,921.38
2022-12-09T09:06:09.441Z,921.45
2022-12-09T09:07:05.009Z,921.41
2022-12-09T09:08:05.672Z,921.39
2022-12-09T09:09:06.814Z,921.35
2022-12-09T09:10:07.307Z,921.36
2022-12-09T09:11:07.607Z,921.41
2022-12-09T09:12:08.171Z,921.43
2022-12-09T09:13:08.304Z,921.41
2022-12-09T09:14:09.297Z,921.41
2022-12-09T09:15:10.473Z,921.38
2022-12-09T09:16:10.606Z,921.4
2022-12-09T09:17:11.815Z,921.38
2022-12-09T09:18:11.832Z,921.41
2022-12-09T09:19:12.572Z,921.4
2022-12-09T09:20:12.739Z,921.4
2022-12-09T09:21:13.315Z,921.4
2022-12-09T09:22:13.784Z,921.42
2022-12-09T09:23:14.574Z,921.39
2022-12-09T09:24:15.442Z,921.35
2022-12-09T09:25:16.140Z,921.35
2022-12-09T09:26:16.572Z,921.32
2022-12-09T09:27:17.128Z,921.37
2022-12-09T09:28:17.462Z,921.37
2022-12-09T09:29:17.709Z,921.34
2022-12-09T09:30:18.448Z,921.34
2022-12-09T09:31:19.398Z,921.35
2022-12-09T09:32:20.513Z,921.29
2022-12-09T09:33:20.994Z,921.27
2022-12-09T09:34:21.686Z,921.26
2022-12-09T09:35:22.757Z,921.26
2022-12-09T09:36:23.893Z,921.29
2022-12-09T09:37:24.566Z,921.32
2022-12-09T09:38:24.461Z,921.33
2022-12-09T09:39:25.675Z,921.37
2022-12-09T09:40:26.152Z,921.37
2022-12-09T09:41:27.189Z,921.36
2022-12-09T09:42:27.234Z,921.37
2022-12-09T09:43:27.826Z,921.38
2022-12-09T09:44:28.100Z,921.39
2022-12-09T09:45:29.402Z,921.39
2022-12-09T09:46:30.221Z,921.37
2022-12-09T09:47:36.328Z,921.31
2022-12-09T09:48:31.126Z,921.29
2022-12-09T09:49:31.112Z,921.23
2022-12-09T09:50:31.881Z,921.24
2022-12-09T09:51:32.990Z,921.23
2022-12-09T09:52:33.650Z,921.22
2022-12-09T09:53:34.230Z,921.18
2022-12-09T09:54:34.434Z,921.17
2022-12-09T09:55:34.863Z,921.21
2022-12-09T09:56:36.067Z,921.19
2022-12-09T09:57:36.632Z,921.15
2022-12-09T09:58:37.381Z,921.13
2022-12-09T09:59:37.429Z,921.1
2022-12-09T10:00:38.232Z,921.08
2022-12-09T10:01:38.746Z,921.1
2022-12-09T10:02:38.978Z,921.1
2022-12-09T10:03:39.464Z,921.07
2022-12-09T10:04:40.455Z,921.12
2022-12-09T10:05:40.269Z,921.14
2022-12-09T10:06:40.311Z,921.1
2022-12-09T10:07:40.926Z,921.06
2022-12-09T10:08:40.901Z,921
2022-12-09T10:09:41.449Z,920.95
2022-12-09T10:10:41.666Z,920.93
2022-12-09T10:11:42.269Z,920.93
2022-12-09T10:12:42.593Z,920.89
2022-12-09T10:13:43.251Z,920.92
2022-12-09T10:14:43.716Z,920.89
2022-12-09T10:15:44.067Z,920.84
2022-12-09T10:16:44.727Z,920.89
2022-12-09T10:17:45.109Z,920.79
2022-12-09T10:18:46.312Z,920.8
2022-12-09T10:19:47.029Z,920.79
2022-12-09T10:20:48.154Z,920.76
2022-12-09T10:21:48.870Z,920.76
2022-12-09T10:22:48.963Z,920.75
2022-12-09T10:23:49.802Z,920.74
2022-12-09T10:24:50.393Z,920.77
2022-12-09T10:25:51.826Z,920.71
2022-12-09T10:26:52.641Z,920.73
2022-12-09T10:27:53.287Z,920.69
2022-12-09T10:28:54.142Z,920.64
2022-12-09T10:29:54.229Z,920.7
2022-12-09T10:30:54.910Z,920.65
2022-12-09T10:31:55.331Z,920.65
2022-12-09T10:32:56.248Z,920.66
2022-12-09T10:33:56.546Z,920.67
2022-12-09T10:34:57.147Z,920.66
2022-12-09T10:35:57.607Z,920.62
2022-12-09T10:36:57.835Z,920.61
2022-12-09T10:37:58.926Z,920.63
2022-12-09T10:38:59.459Z,920.58
2022-12-09T10:39:59.999Z,920.56
2022-12-09T10:40:59.808Z,920.51
2022-12-09T10:41:59.818Z,920.52
2022-12-09T10:43:00.189Z,920.5
2022-12-09T10:44:01.293Z,920.54
2022-12-09T10:45:02.284Z,920.52
2022-12-09T10:46:19.445Z,920.52
2022-12-09T10:47:04.172Z,920.46
2022-12-09T10:48:04.964Z,920.48
2022-12-09T10:49:05.766Z,920.52
2022-12-09T10:50:06.251Z,920.48
2022-12-09T10:51:06.591Z,920.43
2022-12-09T10:52:07.244Z,920.38
2022-12-09T10:53:07.791Z,920.41
2022-12-09T10:54:08.316Z,920.38
2022-12-09T10:55:09.307Z,920.34
2022-12-09T10:56:09.745Z,920.35
2022-12-09T10:57:10.341Z,920.36
2022-12-09T10:58:10.374Z,920.34
2022-12-09T10:59:11.572Z,920.32
2022-12-09T11:00:12.193Z,920.34
2022-12-09T11:01:12.668Z,920.26
2022-12-09T11:02:13.726Z,920.28
2022-12-09T11:03:14.667Z,920.27
2022-12-09T11:04:15.868Z,920.27
2022-12-09T11:05:16.411Z,920.26
2022-12-09T11:06:16.771Z,920.22
2022-12-09T11:07:17.353Z,920.15
2022-12-09T11:08:17.425Z,920.18
2022-12-09T11:09:18.176Z,920.16
2022-12-09T11:10:19.494Z,920.15
2022-12-09T11:11:19.097Z,920.13
2022-12-09T11:12:19.325Z,920.1
2022-12-09T11:13:20.258Z,920.05
2022-12-09T11:14:20.423Z,920.08
2022-12-09T11:15:21.281Z,920.05
2022-12-09T11:16:22.082Z,920.05
2022-12-09T11:17:21.786Z,920.05
2022-12-09T11:18:23.054Z,920.01
2022-12-09T11:19:23.091Z,920.04
2022-12-09T11:20:24.348Z,920.05
2022-12-09T11:21:25.010Z,920.02
2022-12-09T11:22:25.252Z,920.03
2022-12-09T11:23:26.341Z,920.03
2022-12-09T11:24:27.070Z,920.06
2022-12-09T11:25:28.009Z,920.03
2022-12-09T11:26:28.481Z,920.03
2022-12-09T11:27:29.600Z,920.02
2022-12-09T11:28:29.583Z,919.99
2022-12-09T11:29:30.552Z,920.03
2022-12-09T11:30:31.850Z,920
2022-12-09T11:31:36.395Z,920.01
2022-12-09T11:32:36.800Z,920.01
2022-12-09T11:33:37.750Z,920.02
2022-12-09T11:34:38.819Z,919.94
2022-12-09T11:35:39.436Z,919.93
2022-12-09T11:36:42.300Z,919.95
2022-12-09T11:37:40.038Z,919.94
2022-12-09T11:38:40.388Z,919.93
2022-12-09T11:39:41.299Z,919.92
2022-12-09T11:40:41.510Z,919.9
2022-12-09T11:41:41.897Z,919.93
2022-12-09T11:42:42.189Z,919.88
2022-12-09T11:43:42.977Z,919.88
2022-12-09T11:44:43.879Z,919.87
2022-12-09T11:45:44.825Z,919.88
2022-12-09T11:46:45.070Z,919.84
2022-12-09T11:48:50.264Z,919.82
2022-12-09T11:49:50.819Z,919.82
2022-12-09T11:50:51.496Z,919.82
2022-12-09T11:51:51.711Z,919.77
2022-12-09T11:52:52.770Z,919.78
2022-12-09T11:53:53.042Z,919.8
2022-12-09T11:54:53.852Z,919.78
2022-12-09T11:55:54.367Z,919.75
2022-12-09T11:56:54.582Z,919.74
2022-12-09T11:57:55.087Z,919.72
2022-12-09T11:58:56.017Z,919.71
2022-12-09T11:59:56.226Z,919.66
2022-12-09T12:00:56.647Z,919.67
2022-12-09T12:01:57.055Z,919.68
2022-12-09T12:02:58.088Z,919.62
2022-12-09T12:03:58.333Z,919.65
2022-12-09T12:04:58.542Z,919.64
2022-12-09T12:05:58.962Z,919.62
2022-12-09T12:06:59.880Z,919.61
2022-12-09T12:08:00.230Z,919.55
2022-12-09T12:09:00.479Z,919.5
2022-12-09T12:10:01.067Z,919.58
2022-12-09T12:11:01.179Z,919.59
2022-12-09T12:12:01.801Z,919.59
2022-12-09T12:13:02.132Z,919.6
2022-12-09T12:14:03.072Z,919.57
2022-12-09T12:15:03.566Z,919.61
2022-12-09T12:16:04.028Z,919.58
2022-12-09T12:17:04.432Z,919.58
2022-12-09T12:18:05.140Z,919.58
2022-12-09T12:19:05.753Z,919.61
2022-12-09T12:20:06.903Z,919.59
2022-12-09T12:21:07.633Z,919.57
2022-12-09T12:22:08.246Z,919.59
2022-12-09T12:23:09.058Z,919.55
2022-12-09T12:24:10.093Z,919.52
2022-12-09T12:25:15.619Z,919.59
2022-12-09T12:26:11.248Z,919.51
2022-12-09T12:27:11.455Z,919.51
2022-12-09T12:28:11.944Z,919.54
2022-12-09T12:29:12.197Z,919.54
2022-12-09T12:30:13.135Z,919.58
2022-12-09T12:31:13.329Z,919.56
2022-12-09T12:32:13.778Z,919.59
2022-12-09T12:34:24.386Z,919.56
2022-12-09T12:35:17.433Z,919.55
2022-12-09T12:36:18.387Z,919.51
2022-12-09T12:37:18.587Z,919.56
2022-12-09T12:38:19.503Z,919.54
2022-12-09T12:39:19.753Z,919.55
2022-12-09T12:40:25.077Z,919.51
2022-12-09T12:41:21.746Z,919.55